Time;durP1;ratioP1;P1;durP2;ratioP2;P2;SDS_P1;SDS_P2;PMS_P1;PMS_P2;Temp;Humidity;BMP_temperature;BMP_pressure;BME280_temperature;BME280_humidity;BME280_pressure;Samples;Min_cycle;Max_cycle;Signal;HPM_P1;HPM_P2
2021/10/31 00:02:14;;;;;;;23.27;11.47;;;9.80;99.90;;;;;;4378309;32;20513;-68
2021/10/31 00:04:41;;;;;;;22.00;11.97;;;9.80;99.90;;;;;;4364857;32;20195;-68
2021/10/31 00:07:08;;;;;;;23.50;11.43;;;9.80;99.90;;;;;;4377335;32;20238;-65
2021/10/31 00:09:35;;;;;;;25.57;12.87;;;9.80;99.90;;;;;;4380530;32;20151;-68
2021/10/31 00:12:04;;;;;;;22.37;12.60;;;9.80;99.90;;;;;;4368746;32;20206;-68
2021/10/31 00:14:31;;;;;;;21.20;11.03;;;9.70;99.90;;;;;;4367819;32;20238;-68
2021/10/31 00:16:59;;;;;;;25.83;12.37;;;9.70;99.90;;;;;;4368115;32;20214;-68
2021/10/31 00:19:27;;;;;;;25.23;12.27;;;9.70;99.90;;;;;;4366397;32;20187;-68
2021/10/31 00:21:54;;;;;;;23.70;12.43;;;9.70;99.90;;;;;;4368348;32;20194;-68
2021/10/31 00:24:21;;;;;;;21.67;11.80;;;9.70;99.90;;;;;;4382027;32;20553;-68
2021/10/31 00:26:48;;;;;;;21.73;11.77;;;9.70;99.90;;;;;;4367962;32;20475;-68
2021/10/31 00:29:16;;;;;;;21.90;12.33;;;9.70;99.90;;;;;;4367566;32;20525;-68
2021/10/31 00:31:43;;;;;;;22.90;11.07;;;9.70;99.90;;;;;;4367628;32;20199;-68
2021/10/31 00:34:10;;;;;;;22.50;12.97;;;9.70;99.90;;;;;;4368147;32;20168;-69
2021/10/31 00:36:37;;;;;;;21.07;12.00;;;9.60;99.90;;;;;;4367801;32;20282;-67
2021/10/31 00:39:04;;;;;;;22.47;12.27;;;9.60;99.90;;;;;;4379636;32;20147;-68
2021/10/31 00:41:32;;;;;;;22.70;12.10;;;9.50;99.90;;;;;;4366172;32;20230;-68
2021/10/31 00:44:00;;;;;;;22.67;12.47;;;9.50;99.90;;;;;;4365772;32;20176;-68
2021/10/31 00:46:27;;;;;;;21.10;11.63;;;9.50;99.90;;;;;;4368094;32;20502;-68
2021/10/31 00:48:55;;;;;;;22.47;11.80;;;9.40;99.90;;;;;;4366371;32;20202;-69
2021/10/31 00:51:25;;;;;;;22.17;11.80;;;9.40;99.90;;;;;;4365307;32;20251;-68
2021/10/31 00:53:57;;;;;;;23.17;12.03;;;9.30;99.90;;;;;;4367262;32;20470;-68
2021/10/31 00:56:25;;;;;;;22.80;12.57;;;9.30;99.90;;;;;;4365686;32;20205;-67
2021/10/31 00:58:52;;;;;;;22.17;11.83;;;9.30;99.90;;;;;;4379967;32;20173;-68
2021/10/31 01:01:23;;;;;;;23.37;12.47;;;9.30;99.90;;;;;;4367466;32;20207;-68
2021/10/31 01:03:52;;;;;;;23.00;12.67;;;9.30;99.90;;;;;;4367526;32;20214;-68
2021/10/31 01:06:43;;;;;;;22.43;11.90;;;9.20;99.90;;;;;;4368114;32;20172;-68
2021/10/31 01:09:44;;;;;;;23.20;11.80;;;9.20;99.90;;;;;;4367438;32;20175;-68
2021/10/31 01:12:47;;;;;;;22.60;12.43;;;9.20;99.90;;;;;;4379467;32;20159;-68
2021/10/31 01:15:37;;;;;;;21.57;12.43;;;9.10;99.90;;;;;;4381047;32;20219;-68
2021/10/31 01:18:23;;;;;;;21.87;12.20;;;9.10;99.90;;;;;;4380689;32;20379;-68
2021/10/31 01:21:09;;;;;;;20.13;11.70;;;9.00;99.90;;;;;;4367155;32;20451;-68
2021/10/31 01:24:20;;;;;;;23.23;11.57;;;9.00;99.90;;;;;;4367212;32;20242;-68
2021/10/31 01:27:29;;;;;;;20.90;11.57;;;9.00;99.90;;;;;;4307055;33;20183;-68
2021/10/31 01:30:20;;;;;;;23.43;11.97;;;8.90;99.90;;;;;;4306963;33;20199;-69
2021/10/31 01:33:16;;;;;;;24.03;12.00;;;8.90;99.90;;;;;;4306991;33;20267;-68
2021/10/31 01:36:04;;;;;;;20.03;11.50;;;8.90;99.90;;;;;;4305900;33;20183;-68
2021/10/31 01:38:55;;;;;;;19.10;11.10;;;8.90;99.90;;;;;;4307220;33;20252;-68
2021/10/31 01:41:39;;;;;;;26.17;12.73;;;8.90;99.90;;;;;;4305455;33;20458;-68
2021/10/31 01:44:24;;;;;;;23.00;12.33;;;8.90;99.90;;;;;;4307142;33;20168;-68
2021/10/31 01:47:14;;;;;;;23.07;11.73;;;8.80;99.90;;;;;;4305782;33;20173;-67
2021/10/31 01:49:44;;;;;;;22.93;12.13;;;8.80;99.90;;;;;;4307020;33;20545;-67
2021/10/31 01:52:28;;;;;;;23.50;12.47;;;8.80;99.90;;;;;;4319199;33;20141;-67
2021/10/31 01:55:07;;;;;;;23.00;11.60;;;8.80;99.90;;;;;;4319677;33;20191;-67
2021/10/31 01:57:40;;;;;;;25.27;12.10;;;8.80;99.90;;;;;;4305199;33;20220;-67
2021/10/31 02:00:13;;;;;;;23.47;12.37;;;8.70;99.90;;;;;;4321455;32;20411;-67
2021/10/31 02:02:43;;;;;;;23.77;12.53;;;8.70;99.90;;;;;;4364862;32;20251;-67
2021/10/31 02:05:15;;;;;;;27.83;12.40;;;8.80;99.90;;;;;;4364723;32;20175;-68
2021/10/31 02:07:48;;;;;;;23.73;12.33;;;8.70;99.90;;;;;;4365751;32;20190;-67
2021/10/31 02:10:16;;;;;;;20.83;11.63;;;8.70;99.90;;;;;;4380366;32;20143;-67
2021/10/31 02:12:46;;;;;;;20.67;12.33;;;8.70;99.90;;;;;;4353941;32;20239;-68
2021/10/31 02:15:15;;;;;;;26.40;12.60;;;8.70;99.90;;;;;;4366343;32;20176;-67
2021/10/31 02:17:48;;;;;;;21.80;12.00;;;8.60;99.90;;;;;;4366280;32;20181;-67
2021/10/31 02:20:16;;;;;;;22.73;12.17;;;8.60;99.90;;;;;;4366171;32;20322;-67
2021/10/31 02:22:51;;;;;;;22.63;12.60;;;8.50;99.90;;;;;;4364892;32;20250;-68
2021/10/31 02:25:18;;;;;;;23.27;12.07;;;8.50;99.90;;;;;;4365342;32;20233;-68
2021/10/31 02:27:45;;;;;;;22.80;12.60;;;8.50;99.90;;;;;;4354368;32;20295;-68
2021/10/31 02:30:13;;;;;;;21.83;12.73;;;8.50;99.90;;;;;;4377755;32;20198;-67
2021/10/31 02:32:40;;;;;;;21.97;12.33;;;8.50;99.90;;;;;;4379343;32;20193;-68
2021/10/31 02:35:11;;;;;;;25.70;12.20;;;8.40;99.90;;;;;;4366103;32;20225;-68
2021/10/31 02:37:42;;;;;;;23.53;13.10;;;8.40;99.90;;;;;;4365101;32;20176;-68
2021/10/31 02:40:11;;;;;;;24.63;12.33;;;8.40;99.90;;;;;;4365306;32;20217;-68
2021/10/31 02:42:39;;;;;;;22.67;12.60;;;8.40;99.90;;;;;;4366012;32;20974;-68
2021/10/31 02:45:06;;;;;;;25.33;12.70;;;8.40;99.90;;;;;;4379598;32;20144;-66
2021/10/31 02:47:51;;;;;;;22.07;12.73;;;8.40;99.90;;;;;;4365931;32;20200;-66
2021/10/31 02:50:24;;;;;;;22.93;12.20;;;8.40;99.90;;;;;;4365492;32;20160;-66
2021/10/31 02:53:13;;;;;;;22.80;12.60;;;8.40;99.90;;;;;;4366266;32;20198;-68
2021/10/31 02:56:11;;;;;;;24.03;12.87;;;8.40;99.90;;;;;;4379092;32;20190;-67
2021/10/31 02:58:48;;;;;;;23.53;12.57;;;8.40;99.90;;;;;;4366107;32;20175;-67
2021/10/31 03:01:16;;;;;;;24.43;12.37;;;8.40;99.90;;;;;;4365852;32;20267;-67
2021/10/31 03:03:43;;;;;;;24.40;12.37;;;8.40;99.90;;;;;;4379723;32;20169;-67
2021/10/31 03:06:12;;;;;;;20.60;11.93;;;8.40;99.90;;;;;;4378103;32;20194;-67
2021/10/31 03:08:39;;;;;;;24.73;12.40;;;8.40;99.90;;;;;;4366202;32;20225;-67
2021/10/31 03:11:08;;;;;;;26.03;12.60;;;8.40;99.90;;;;;;4363970;32;20179;-67
2021/10/31 03:13:36;;;;;;;22.23;12.37;;;8.30;99.90;;;;;;4364316;32;20428;-67
2021/10/31 03:16:05;;;;;;;21.20;12.30;;;8.40;99.90;;;;;;4365810;32;20194;-67
2021/10/31 03:18:32;;;;;;;27.70;13.47;;;8.40;99.90;;;;;;4365659;32;20188;-67
2021/10/31 03:20:59;;;;;;;23.07;12.70;;;8.40;99.90;;;;;;4365630;32;20529;-67
2021/10/31 03:23:27;;;;;;;24.37;12.30;;;8.30;99.90;;;;;;4365642;32;20195;-67
2021/10/31 03:25:54;;;;;;;28.40;12.97;;;8.40;99.90;;;;;;4365595;32;20187;-67
2021/10/31 03:28:20;;;;;;;26.57;12.90;;;8.30;99.90;;;;;;4364632;32;20207;-67
2021/10/31 03:30:47;;;;;;;22.63;12.83;;;8.30;99.90;;;;;;4365342;32;20564;-67
2021/10/31 03:33:15;;;;;;;24.90;13.20;;;8.20;99.90;;;;;;4365457;32;20202;-67
2021/10/31 03:35:43;;;;;;;27.03;13.10;;;8.20;99.90;;;;;;4365655;32;20171;-67
2021/10/31 03:38:09;;;;;;;23.33;13.40;;;8.10;99.90;;;;;;4365903;32;20176;-67
2021/10/31 03:40:36;;;;;;;22.43;13.27;;;8.10;99.90;;;;;;4365134;32;20522;-67
2021/10/31 03:43:03;;;;;;;23.37;13.03;;;8.00;99.90;;;;;;4365934;32;20411;-67
2021/10/31 03:45:31;;;;;;;22.43;12.67;;;8.10;99.90;;;;;;4366787;32;20234;-67
2021/10/31 03:47:59;;;;;;;24.50;13.07;;;8.10;99.90;;;;;;4354678;32;20422;-67
2021/10/31 03:50:25;;;;;;;21.97;12.50;;;8.00;99.90;;;;;;4367765;32;20255;-67
2021/10/31 03:52:55;;;;;;;24.40;13.33;;;8.00;99.90;;;;;;4382005;32;20400;-67
2021/10/31 03:55:22;;;;;;;24.63;12.50;;;8.00;99.90;;;;;;4366708;32;20254;-67
2021/10/31 03:57:49;;;;;;;20.50;12.63;;;8.00;99.90;;;;;;4369024;32;20474;-67
2021/10/31 04:00:16;;;;;;;26.30;13.50;;;8.00;99.90;;;;;;4366578;32;20261;-67
2021/10/31 04:02:44;;;;;;;24.60;12.87;;;8.00;99.90;;;;;;4366803;32;20197;-67
2021/10/31 04:05:12;;;;;;;23.83;12.97;;;8.00;99.90;;;;;;4368328;32;20187;-67
2021/10/31 04:07:40;;;;;;;25.63;12.73;;;8.00;99.90;;;;;;4368255;32;20168;-67
2021/10/31 04:10:07;;;;;;;21.97;12.87;;;7.90;99.90;;;;;;4380101;32;20190;-67
2021/10/31 04:12:35;;;;;;;24.87;12.97;;;7.90;99.90;;;;;;4381745;32;20205;-66
2021/10/31 04:15:04;;;;;;;22.70;12.67;;;7.90;99.90;;;;;;4368853;32;20188;-67
2021/10/31 04:17:31;;;;;;;25.73;12.90;;;7.90;99.90;;;;;;4368064;32;20267;-67
2021/10/31 04:19:59;;;;;;;24.50;13.00;;;7.90;99.90;;;;;;4381726;32;20253;-66
2021/10/31 04:22:29;;;;;;;26.17;13.70;;;7.90;99.90;;;;;;4368540;32;20202;-67
2021/10/31 04:24:56;;;;;;;24.70;13.93;;;7.90;99.90;;;;;;4382069;32;20209;-68
2021/10/31 04:27:23;;;;;;;24.60;13.50;;;7.90;99.90;;;;;;4368018;32;20187;-68
2021/10/31 04:29:50;;;;;;;27.67;14.07;;;7.90;99.90;;;;;;4368290;32;20200;-67
2021/10/31 04:32:17;;;;;;;29.13;13.97;;;7.80;99.90;;;;;;4367715;32;20448;-67
2021/10/31 04:34:44;;;;;;;23.27;12.97;;;7.80;99.90;;;;;;4380422;32;20202;-68
2021/10/31 04:37:12;;;;;;;24.47;13.30;;;7.80;99.90;;;;;;4366175;32;20278;-68
2021/10/31 04:39:40;;;;;;;24.70;13.60;;;7.80;99.90;;;;;;4365350;32;20183;-68
2021/10/31 04:42:10;;;;;;;22.47;13.73;;;7.80;99.90;;;;;;4361992;32;20207;-68
2021/10/31 04:44:38;;;;;;;23.43;12.70;;;7.80;99.90;;;;;;4352869;32;20526;-68
2021/10/31 04:47:05;;;;;;;22.97;13.30;;;7.80;99.90;;;;;;4351245;33;20175;-68
2021/10/31 04:49:33;;;;;;;26.73;13.67;;;7.80;99.90;;;;;;4352764;32;20198;-67
2021/10/31 04:52:01;;;;;;;23.97;13.40;;;7.80;99.90;;;;;;4362512;33;20186;-68
2021/10/31 04:54:28;;;;;;;24.13;13.70;;;7.80;99.90;;;;;;4364638;32;20254;-68
2021/10/31 04:56:55;;;;;;;27.63;13.13;;;7.80;99.90;;;;;;4363317;33;20402;-68
2021/10/31 04:59:21;;;;;;;25.67;13.83;;;7.80;99.90;;;;;;4364910;32;20244;-68
2021/10/31 05:01:49;;;;;;;22.83;13.37;;;7.70;99.90;;;;;;4363347;33;20202;-69
2021/10/31 05:04:18;;;;;;;24.37;13.90;;;7.70;99.90;;;;;;4364720;32;20421;-68
2021/10/31 05:06:45;;;;;;;26.20;13.30;;;7.70;99.90;;;;;;4363135;33;20182;-68
2021/10/31 05:09:12;;;;;;;23.60;13.40;;;7.70;99.90;;;;;;4365511;32;20206;-67
2021/10/31 05:11:39;;;;;;;25.50;13.80;;;7.70;99.90;;;;;;4364619;32;20250;-68
2021/10/31 05:14:06;;;;;;;26.70;13.50;;;7.70;99.90;;;;;;4365452;32;20214;-68
2021/10/31 05:16:35;;;;;;;26.00;12.93;;;7.60;99.90;;;;;;4363136;33;20308;-68
2021/10/31 05:19:03;;;;;;;25.60;12.97;;;7.70;99.90;;;;;;4363614;32;20218;-67
2021/10/31 05:21:31;;;;;;;24.03;13.43;;;7.60;99.90;;;;;;4364756;32;20156;-67
2021/10/31 05:23:58;;;;;;;23.07;12.70;;;7.60;99.90;;;;;;4364969;32;20475;-69
2021/10/31 05:26:25;;;;;;;27.30;13.17;;;7.60;99.90;;;;;;4364474;32;20596;-67
2021/10/31 05:28:54;;;;;;;24.43;13.57;;;7.60;99.90;;;;;;4365781;32;20186;-67
2021/10/31 05:31:22;;;;;;;24.47;13.23;;;7.50;99.90;;;;;;4362855;33;20247;-69
2021/10/31 05:33:50;;;;;;;21.73;12.83;;;7.50;99.90;;;;;;4362706;33;20176;-68
2021/10/31 05:36:17;;;;;;;24.50;13.30;;;7.50;99.90;;;;;;4366051;32;20148;-67
2021/10/31 05:38:44;;;;;;;24.37;13.03;;;7.50;99.90;;;;;;4352576;32;20500;-67
2021/10/31 05:41:11;;;;;;;22.27;13.13;;;7.50;99.90;;;;;;4364678;32;20290;-68
2021/10/31 05:43:38;;;;;;;26.73;13.50;;;7.50;99.90;;;;;;4364432;32;20443;-68
2021/10/31 05:46:05;;;;;;;26.33;13.10;;;7.50;99.90;;;;;;4363697;32;20172;-67
2021/10/31 05:48:32;;;;;;;31.57;14.00;;;7.40;99.90;;;;;;4364156;32;20207;-68
2021/10/31 05:50:59;;;;;;;23.87;13.30;;;7.40;99.90;;;;;;4363382;32;20183;-67
2021/10/31 05:53:28;;;;;;;25.17;13.67;;;7.50;99.90;;;;;;4364244;32;20190;-67
2021/10/31 05:55:55;;;;;;;24.77;13.70;;;7.50;99.90;;;;;;4364880;32;20235;-68
2021/10/31 05:58:22;;;;;;;24.50;14.17;;;7.50;99.90;;;;;;4362132;33;20239;-67
2021/10/31 06:00:48;;;;;;;23.67;13.03;;;7.50;99.90;;;;;;4362196;32;20188;-67
2021/10/31 06:03:15;;;;;;;28.43;14.17;;;7.50;99.90;;;;;;4364029;32;20234;-67
2021/10/31 06:05:44;;;;;;;24.50;14.03;;;7.50;99.90;;;;;;4364693;32;20203;-67
2021/10/31 06:08:14;;;;;;;24.37;13.87;;;7.50;99.90;;;;;;4362725;33;20249;-68
2021/10/31 06:10:43;;;;;;;26.10;13.60;;;7.50;99.90;;;;;;4365512;32;20175;-69
2021/10/31 06:13:10;;;;;;;25.60;13.60;;;7.50;99.90;;;;;;4363210;32;20179;-69
2021/10/31 06:15:37;;;;;;;25.57;13.57;;;7.50;99.90;;;;;;4361999;33;20313;-68
2021/10/31 06:18:04;;;;;;;24.00;13.73;;;7.50;99.90;;;;;;4363963;32;20468;-68
2021/10/31 06:20:31;;;;;;;26.57;14.00;;;7.50;99.90;;;;;;4364080;32;20249;-69
2021/10/31 06:22:58;;;;;;;25.40;14.10;;;7.60;99.90;;;;;;4362625;32;20416;-70
2021/10/31 06:25:24;;;;;;;24.20;13.47;;;7.60;99.90;;;;;;4365498;32;20150;-68
2021/10/31 06:27:51;;;;;;;26.03;13.93;;;7.60;99.90;;;;;;4364260;32;20229;-70
2021/10/31 06:30:18;;;;;;;25.67;13.47;;;7.70;99.90;;;;;;4363626;32;20242;-69
2021/10/31 06:32:45;;;;;;;22.67;13.00;;;7.70;99.90;;;;;;4364354;32;20183;-68
2021/10/31 06:35:12;;;;;;;23.87;12.83;;;7.80;99.90;;;;;;4363087;32;20180;-68
2021/10/31 06:37:39;;;;;;;23.23;12.57;;;7.80;99.90;;;;;;4361825;32;20254;-68
2021/10/31 06:40:07;;;;;;;21.97;13.17;;;7.90;99.90;;;;;;4361661;33;20811;-68
2021/10/31 06:42:35;;;;;;;23.87;13.30;;;8.00;99.90;;;;;;4363454;32;20171;-68
2021/10/31 06:45:02;;;;;;;22.70;12.87;;;8.00;99.90;;;;;;4363381;32;20212;-68
2021/10/31 06:47:29;;;;;;;22.07;12.97;;;8.10;99.90;;;;;;4362378;32;20176;-69
2021/10/31 06:49:57;;;;;;;24.67;13.73;;;8.10;99.90;;;;;;4364344;32;20433;-68
2021/10/31 06:52:23;;;;;;;23.00;13.57;;;8.10;99.90;;;;;;4354258;32;20246;-70
2021/10/31 06:54:51;;;;;;;24.47;13.17;;;8.10;99.90;;;;;;4365078;32;20183;-68
2021/10/31 06:57:18;;;;;;;25.50;13.03;;;8.20;99.90;;;;;;4363881;32;20172;-68
2021/10/31 06:59:44;;;;;;;22.77;12.80;;;8.30;99.90;;;;;;4379594;32;20203;-69
2021/10/31 07:02:11;;;;;;;25.47;13.63;;;8.40;99.90;;;;;;4379100;32;20271;-68
2021/10/31 07:04:38;;;;;;;25.23;12.90;;;8.40;99.90;;;;;;4365816;32;20591;-69
2021/10/31 07:07:05;;;;;;;23.90;12.80;;;8.40;99.90;;;;;;4365562;32;20600;-71
2021/10/31 07:09:33;;;;;;;24.37;12.70;;;8.50;99.90;;;;;;4365481;32;20201;-69
2021/10/31 07:12:00;;;;;;;27.23;12.47;;;8.60;99.90;;;;;;4379372;32;20416;-68
2021/10/31 07:14:27;;;;;;;24.10;12.47;;;8.60;99.90;;;;;;4353514;32;20171;-68
2021/10/31 07:16:54;;;;;;;21.77;12.23;;;8.70;99.90;;;;;;4364261;32;20255;-68
2021/10/31 07:19:21;;;;;;;23.90;13.00;;;8.80;99.90;;;;;;4379094;32;20190;-69
2021/10/31 07:21:48;;;;;;;23.27;12.43;;;8.80;99.90;;;;;;4365409;32;20553;-70
2021/10/31 07:24:15;;;;;;;23.90;12.60;;;8.90;99.90;;;;;;4364197;32;20187;-69
2021/10/31 07:26:41;;;;;;;24.77;13.10;;;8.90;99.90;;;;;;4365875;32;20506;-68
2021/10/31 07:29:09;;;;;;;21.83;12.57;;;9.00;99.90;;;;;;4365644;32;20311;-69
2021/10/31 07:31:37;;;;;;;25.33;12.90;;;9.00;99.90;;;;;;4365462;32;20579;-69
2021/10/31 07:34:08;;;;;;;21.43;12.20;;;9.10;99.90;;;;;;4365386;32;20180;-69
2021/10/31 07:36:36;;;;;;;22.67;12.43;;;9.30;99.90;;;;;;4365339;32;20213;-69
2021/10/31 07:39:03;;;;;;;21.60;12.13;;;9.50;99.90;;;;;;4365647;32;20203;-69
2021/10/31 07:41:30;;;;;;;24.00;12.87;;;10.10;99.90;;;;;;4365110;32;20205;-69
2021/10/31 07:43:57;;;;;;;21.97;12.03;;;10.50;99.90;;;;;;4365193;32;20176;-69
2021/10/31 07:46:24;;;;;;;18.07;11.67;;;10.80;99.90;;;;;;4365229;32;20202;-69
2021/10/31 07:48:51;;;;;;;20.90;12.63;;;10.90;99.90;;;;;;4353000;32;20541;-69
2021/10/31 07:51:17;;;;;;;22.33;12.40;;;11.10;99.90;;;;;;4363353;32;20486;-69
2021/10/31 07:53:44;;;;;;;19.53;11.93;;;11.40;99.90;;;;;;4365178;32;20492;-69
2021/10/31 07:56:17;;;;;;;20.63;11.70;;;11.70;99.90;;;;;;4365138;32;20194;-68
2021/10/31 07:58:46;;;;;;;22.43;11.80;;;12.00;99.90;;;;;;4378432;32;20151;-69
2021/10/31 08:01:13;;;;;;;22.20;12.00;;;12.20;99.90;;;;;;4378268;32;20197;-69
2021/10/31 08:03:40;;;;;;;20.90;11.87;;;12.50;99.90;;;;;;4364703;32;20222;-69
2021/10/31 08:06:09;;;;;;;22.17;11.27;;;12.70;99.90;;;;;;4364660;32;20345;-70
2021/10/31 08:08:36;;;;;;;21.03;11.83;;;12.90;99.90;;;;;;4378368;32;20189;-70
2021/10/31 08:11:03;;;;;;;22.43;11.97;;;13.00;99.90;;;;;;4365576;32;20205;-67
2021/10/31 08:13:30;;;;;;;20.90;11.77;;;13.20;99.90;;;;;;4378472;32;20178;-68
2021/10/31 08:15:57;;;;;;;19.63;11.37;;;13.50;99.90;;;;;;4365356;32;20214;-68
2021/10/31 08:18:24;;;;;;;22.67;11.47;;;13.70;99.90;;;;;;4364938;32;20230;-68
2021/10/31 08:20:53;;;;;;;19.87;11.83;;;13.90;99.90;;;;;;4365187;32;20207;-69
2021/10/31 08:23:21;;;;;;;20.33;11.13;;;14.00;99.90;;;;;;4365334;32;20306;-68
2021/10/31 08:25:49;;;;;;;20.70;11.57;;;14.20;99.90;;;;;;4364221;32;20352;-68
2021/10/31 08:28:18;;;;;;;19.40;12.07;;;14.60;99.90;;;;;;4364228;32;20256;-69
2021/10/31 08:30:55;;;;;;;18.50;11.33;;;15.00;99.90;;;;;;4381425;32;20183;-68
2021/10/31 08:33:57;;;;;;;16.57;10.93;;;15.30;99.90;;;;;;4367541;32;20199;-68
2021/10/31 08:36:14;;;;;;;22.33;11.43;;;15.60;99.90;;;;;;4364375;32;20175;-68
2021/10/31 08:38:41;;;;;;;25.40;11.80;;;15.80;99.90;;;;;;4381626;32;20449;-69
2021/10/31 08:41:08;;;;;;;19.43;10.73;;;16.10;99.90;;;;;;4367329;32;20175;-69
2021/10/31 08:43:35;;;;;;;18.90;10.57;;;16.30;99.60;;;;;;4365930;32;20182;-69
2021/10/31 08:46:02;;;;;;;18.33;10.97;;;16.50;98.50;;;;;;4365959;32;20588;-69
2021/10/31 08:48:30;;;;;;;20.70;10.70;;;16.60;97.20;;;;;;4365678;32;20168;-70
2021/10/31 08:50:58;;;;;;;16.40;10.17;;;16.60;96.30;;;;;;4365263;32;20171;-67
2021/10/31 08:53:27;;;;;;;20.10;10.77;;;16.60;96.30;;;;;;4380900;32;20152;-68
2021/10/31 08:55:58;;;;;;;18.77;9.87;;;17.00;95.40;;;;;;4357759;32;20221;-68
2021/10/31 08:58:25;;;;;;;17.33;10.20;;;17.00;94.50;;;;;;4366023;32;20207;-68
2021/10/31 09:00:52;;;;;;;18.03;10.40;;;17.50;93.70;;;;;;4366681;32;20655;-68
2021/10/31 09:03:19;;;;;;;15.33;9.50;;;17.70;92.80;;;;;;4365330;32;20198;-68
2021/10/31 09:05:46;;;;;;;17.30;9.70;;;17.90;92.00;;;;;;4367116;32;20179;-68
2021/10/31 09:08:13;;;;;;;16.50;10.03;;;18.10;91.20;;;;;;4365475;32;20286;-67
2021/10/31 09:10:40;;;;;;;15.03;9.80;;;18.10;91.20;;;;;;4366393;32;20179;-68
2021/10/31 09:13:08;;;;;;;15.80;9.73;;;18.40;90.20;;;;;;4367387;32;20398;-69
2021/10/31 09:15:36;;;;;;;17.00;9.30;;;18.60;89.40;;;;;;4367498;32;20199;-69
2021/10/31 09:18:03;;;;;;;15.20;9.10;;;18.50;87.10;;;;;;4366586;32;20678;-67
2021/10/31 09:20:33;;;;;;;15.40;9.63;;;18.50;86.70;;;;;;4366682;32;20434;-68
2021/10/31 09:23:03;;;;;;;16.27;9.00;;;18.40;87.20;;;;;;4367198;32;20600;-68
2021/10/31 09:25:30;;;;;;;14.83;9.50;;;18.60;85.70;;;;;;4367234;32;20191;-68
2021/10/31 09:27:59;;;;;;;20.33;9.97;;;18.50;84.90;;;;;;4362975;32;20235;-68
2021/10/31 09:30:27;;;;;;;17.43;10.03;;;18.70;83.60;;;;;;4356794;33;20190;-72
2021/10/31 09:32:54;;;;;;;16.73;9.97;;;19.00;83.30;;;;;;4352134;32;20234;-69
2021/10/31 09:35:24;;;;;;;18.77;9.20;;;19.50;82.10;;;;;;4350445;33;20175;-67
2021/10/31 09:37:55;;;;;;;14.50;9.30;;;20.00;81.00;;;;;;4351841;32;20183;-67
2021/10/31 09:40:23;;;;;;;16.17;8.60;;;20.10;78.40;;;;;;4351556;32;20535;-67
2021/10/31 09:42:52;;;;;;;15.03;8.50;;;20.20;76.70;;;;;;4350666;33;20234;-67
2021/10/31 09:45:21;;;;;;;14.33;8.53;;;20.00;74.60;;;;;;4351673;32;20172;-68
2021/10/31 09:48:10;;;;;;;14.40;8.50;;;20.20;74.90;;;;;;4351216;32;20408;-67
2021/10/31 09:50:49;;;;;;;14.23;8.77;;;20.50;73.90;;;;;;4355093;32;20175;-67
2021/10/31 09:53:20;;;;;;;15.10;8.53;;;20.50;71.80;;;;;;4366246;32;20231;-67
2021/10/31 09:55:48;;;;;;;15.37;8.73;;;20.30;70.40;;;;;;4366515;32;20175;-68
2021/10/31 09:58:22;;;;;;;15.97;8.10;;;20.70;71.20;;;;;;4366587;32;20187;-68
2021/10/31 10:00:52;;;;;;;12.03;8.13;;;21.00;69.50;;;;;;4378677;32;20243;-66
2021/10/31 10:06:12;;;;;;;12.27;7.50;;;21.40;67.10;;;;;;4363987;32;20457;-69
2021/10/31 10:09:00;;;;;;;11.70;7.30;;;21.90;66.30;;;;;;4366826;32;20229;-67
2021/10/31 10:11:30;;;;;;;13.50;7.80;;;22.20;63.90;;;;;;4366447;32;20187;-66
2021/10/31 10:14:24;;;;;;;15.00;7.67;;;22.40;63.00;;;;;;4352697;32;20250;-67
2021/10/31 10:16:58;;;;;;;13.00;7.77;;;22.50;61.20;;;;;;4366160;32;20199;-67
2021/10/31 10:19:36;;;;;;;10.33;7.53;;;22.70;60.00;;;;;;4365467;32;20184;-67
2021/10/31 10:22:07;;;;;;;12.27;7.30;;;22.00;59.80;;;;;;4378043;32;20174;-67
2021/10/31 10:24:38;;;;;;;11.63;7.33;;;21.10;61.20;;;;;;4366241;32;20227;-69
2021/10/31 10:27:08;;;;;;;11.97;7.63;;;20.90;63.00;;;;;;4365255;32;20242;-66
2021/10/31 10:29:37;;;;;;;11.43;7.40;;;20.90;62.90;;;;;;4363837;32;20184;-66
2021/10/31 10:32:19;;;;;;;10.70;6.90;;;20.90;62.10;;;;;;4364383;32;20659;-66
2021/10/31 10:34:57;;;;;;;12.07;7.17;;;21.00;62.50;;;;;;4379060;32;20224;-67
2021/10/31 10:37:28;;;;;;;10.13;7.10;;;21.40;62.40;;;;;;4365402;32;20286;-67
2021/10/31 10:40:09;;;;;;;11.33;7.17;;;21.60;60.60;;;;;;4364913;32;20290;-67
2021/10/31 10:42:38;;;;;;;14.50;7.30;;;21.90;59.80;;;;;;4364643;32;20189;-67
2021/10/31 10:45:07;;;;;;;11.70;7.40;;;21.20;60.50;;;;;;4365801;32;20175;-67
2021/10/31 10:47:40;;;;;;;11.83;7.13;;;20.90;61.20;;;;;;4379898;32;20267;-66
2021/10/31 10:50:18;;;;;;;11.93;7.17;;;20.80;62.20;;;;;;4365262;32;20198;-67
2021/10/31 10:52:46;;;;;;;12.03;7.33;;;20.70;61.90;;;;;;4363857;32;20171;-67
2021/10/31 10:55:18;;;;;;;11.93;6.90;;;20.80;62.80;;;;;;4364209;32;20171;-67
2021/10/31 10:57:52;;;;;;;11.33;7.20;;;21.10;62.00;;;;;;4379403;32;20140;-67
2021/10/31 11:00:27;;;;;;;12.00;7.17;;;21.30;61.50;;;;;;4364864;32;20168;-68
2021/10/31 11:03:20;;;;;;;14.47;7.63;;;21.40;61.60;;;;;;4365330;32;20263;-67
2021/10/31 11:06:02;;;;;;;11.20;7.47;;;21.20;61.10;;;;;;4365144;32;20171;-68
2021/10/31 11:08:30;;;;;;;12.27;6.90;;;21.20;62.40;;;;;;4365356;32;20168;-67
2021/10/31 11:11:02;;;;;;;12.10;6.90;;;21.00;62.70;;;;;;4363097;32;20243;-66
2021/10/31 11:13:30;;;;;;;12.37;7.17;;;20.70;62.70;;;;;;4379082;32;20171;-66
2021/10/31 11:16:02;;;;;;;10.90;7.70;;;20.60;63.50;;;;;;4364148;32;20198;-67
2021/10/31 11:18:29;;;;;;;15.23;7.80;;;20.30;63.50;;;;;;4363623;32;20168;-67
2021/10/31 11:20:56;;;;;;;12.00;7.20;;;20.10;64.40;;;;;;4365009;32;20235;-68
2021/10/31 11:23:23;;;;;;;11.00;7.20;;;20.30;64.90;;;;;;4365236;32;20250;-67
2021/10/31 11:25:51;;;;;;;11.03;7.40;;;20.70;63.50;;;;;;4365254;32;20580;-67
2021/10/31 11:28:20;;;;;;;12.87;7.50;;;21.30;62.10;;;;;;4365537;32;20458;-67
2021/10/31 11:30:49;;;;;;;11.77;7.90;;;21.90;61.40;;;;;;4377504;32;20434;-68
2021/10/31 11:33:17;;;;;;;11.70;7.80;;;22.40;59.60;;;;;;4365444;32;20175;-67
2021/10/31 11:35:44;;;;;;;12.85;7.87;;;23.00;58.30;;;;;;4364240;32;20518;-67
2021/10/31 11:38:16;;;;;;;12.73;7.80;;;23.70;57.40;;;;;;4376853;32;20162;-68
2021/10/31 11:40:50;;;;;;;11.65;8.15;;;24.80;55.10;;;;;;4362510;32;20180;-67
2021/10/31 11:43:34;;;;;;;13.65;8.13;;;25.00;54.30;;;;;;4364477;32;20201;-67
2021/10/31 11:46:03;;;;;;;12.13;8.15;;;25.60;52.50;;;;;;4363776;32;20259;-67
2021/10/31 11:48:34;;;;;;;12.10;8.38;;;25.90;51.20;;;;;;4365014;32;20206;-66
2021/10/31 11:51:10;;;;;;;10.65;7.72;;;25.90;51.00;;;;;;4378213;32;20486;-67
2021/10/31 11:53:43;;;;;;;10.45;7.80;;;26.50;51.50;;;;;;4364346;32;20171;-68
2021/10/31 11:56:20;;;;;;;11.05;8.10;;;27.00;49.40;;;;;;4363722;32;20263;-68
2021/10/31 11:58:55;;;;;;;12.10;8.23;;;27.90;48.20;;;;;;4365533;32;20168;-67
2021/10/31 12:01:46;;;;;;;11.43;7.53;;;28.50;46.50;;;;;;4365211;32;20245;-68
2021/10/31 12:05:15;;;;;;;12.23;8.23;;;29.20;45.10;;;;;;4366642;32;20175;-68
2021/10/31 12:07:42;;;;;;;12.68;8.18;;;28.80;44.50;;;;;;4367083;32;20172;-69
2021/10/31 12:10:27;;;;;;;12.63;7.95;;;29.10;44.10;;;;;;4367046;32;20262;-68
2021/10/31 12:13:14;;;;;;;10.30;7.53;;;29.50;44.30;;;;;;4365566;32;20655;-67
2021/10/31 12:16:03;;;;;;;11.98;7.95;;;29.70;43.10;;;;;;4379583;32;20258;-68
2021/10/31 12:18:43;;;;;;;10.63;7.65;;;29.30;43.30;;;;;;4350997;33;20247;-68
2021/10/31 12:21:28;;;;;;;11.90;8.25;;;29.00;43.90;;;;;;4365293;32;20179;-68
2021/10/31 12:24:17;;;;;;;11.77;8.23;;;29.00;42.50;;;;;;4368324;32;20234;-66
2021/10/31 12:26:54;;;;;;;9.70;7.25;;;29.30;42.80;;;;;;4367745;32;20275;-67
2021/10/31 12:29:27;;;;;;;11.00;7.57;;;30.00;42.30;;;;;;4367247;32;20236;-67
2021/10/31 12:31:56;;;;;;;13.07;7.47;;;30.50;41.40;;;;;;4381427;32;20243;-67
2021/10/31 12:34:48;;;;;;;11.20;7.70;;;30.70;40.80;;;;;;4381181;32;20533;-68
2021/10/31 12:37:18;;;;;;;11.40;7.37;;;29.80;41.90;;;;;;4305549;33;20145;-67
2021/10/31 12:39:52;;;;;;;10.93;7.45;;;30.10;41.20;;;;;;4304811;33;20252;-67
2021/10/31 12:42:50;;;;;;;9.80;7.22;;;30.00;40.90;;;;;;4286090;33;20181;-66
2021/10/31 12:45:17;;;;;;;12.10;7.68;;;29.00;41.40;;;;;;4290298;33;20575;-68
2021/10/31 12:47:55;;;;;;;10.27;7.70;;;28.60;41.90;;;;;;4304020;33;20518;-66
2021/10/31 12:50:24;;;;;;;10.90;7.60;;;28.30;42.50;;;;;;4289532;33;20221;-68
2021/10/31 12:53:21;;;;;;;13.75;7.90;;;28.00;43.40;;;;;;4302641;33;20178;-68
2021/10/31 12:55:49;;;;;;;10.38;7.80;;;27.80;44.00;;;;;;4275979;33;20188;-67
2021/10/31 12:58:21;;;;;;;9.98;7.32;;;27.80;43.70;;;;;;4276302;33;20631;-67
2021/10/31 13:00:53;;;;;;;10.63;7.50;;;27.80;43.80;;;;;;4274177;33;20693;-68